createdAt,value
2019-01-19T00:03:51.180Z,1.23
2019-01-19T00:06:21.696Z,0.93
2019-01-19T00:08:48.550Z,1.07
2019-01-19T00:14:21.250Z,1.20
2019-01-19T00:17:08.049Z,0.90
2019-01-19T00:19:59.678Z,0.70
2019-01-19T00:25:32.891Z,1.10
2019-01-19T00:28:01.276Z,1.00
2019-01-19T00:30:29.887Z,0.60
2019-01-19T00:33:03.433Z,0.60
2019-01-19T00:35:35.136Z,0.90
2019-01-19T00:38:04.615Z,0.90
2019-01-19T00:40:34.383Z,0.93
2019-01-19T00:43:01.292Z,0.80
2019-01-19T00:45:35.237Z,0.70
2019-01-19T00:51:09.894Z,1.12
2019-01-19T00:53:39.575Z,0.80
2019-01-19T00:56:24.965Z,1.10
2019-01-19T00:58:53.484Z,0.97
2019-01-19T01:04:39.324Z,1.00
2019-01-19T01:07:11.796Z,0.90
2019-01-19T01:09:58.151Z,1.00
2019-01-19T01:12:34.084Z,0.90
2019-01-19T01:18:01.231Z,1.02
2019-01-19T01:20:33.744Z,1.10
2019-01-19T01:23:01.590Z,0.60
2019-01-19T01:28:39.246Z,1.00
2019-01-19T01:31:07.619Z,0.90
2019-01-19T01:33:45.288Z,0.93
2019-01-19T01:36:28.115Z,0.73
2019-01-19T01:38:56.791Z,0.97
2019-01-19T01:41:39.659Z,0.70
2019-01-19T01:44:08.240Z,0.80
2019-01-19T01:46:42.717Z,0.77
2019-01-19T01:52:07.608Z,0.80
2019-01-19T01:54:36.383Z,0.87
2019-01-19T01:57:03.927Z,0.60
2019-01-19T01:59:47.563Z,0.90
2019-01-19T02:02:27.268Z,0.80
2019-01-19T02:05:13.720Z,0.83
2019-01-19T02:08:02.250Z,0.60
2019-01-19T02:10:39.833Z,0.90
2019-01-19T02:13:14.666Z,0.63
2019-01-19T02:15:49.328Z,0.77
2019-01-19T02:18:22.043Z,0.77
2019-01-19T02:20:51.921Z,0.90
2019-01-19T02:23:20.616Z,0.57
2019-01-19T02:28:52.455Z,0.85
2019-01-19T02:31:40.160Z,0.93
2019-01-19T02:34:18.656Z,1.27
2019-01-19T02:36:48.969Z,1.07
2019-01-19T02:39:17.720Z,0.70
2019-01-19T02:44:50.647Z,0.95
2019-01-19T02:47:26.284Z,0.80
2019-01-19T02:50:00.263Z,0.80
2019-01-19T02:52:38.402Z,1.00
2019-01-19T02:58:16.382Z,1.02
2019-01-19T03:00:59.040Z,0.80
2019-01-19T03:06:40.834Z,1.10
2019-01-19T03:09:13.211Z,0.53
2019-01-19T03:11:43.755Z,0.80
2019-01-19T03:14:22.638Z,0.53
2019-01-19T03:17:07.188Z,0.77
2019-01-19T03:19:49.551Z,0.67
2019-01-19T03:25:17.167Z,0.90
2019-01-19T03:31:03.589Z,1.10
2019-01-19T03:33:40.050Z,0.77
2019-01-19T03:36:28.278Z,0.63
2019-01-19T03:38:58.082Z,0.80
2019-01-19T03:44:30.616Z,1.00
2019-01-19T03:47:26.218Z,0.80
2019-01-19T03:50:05.944Z,0.67
2019-01-19T03:52:41.614Z,0.90
2019-01-19T03:58:29.985Z,0.90
2019-01-19T04:01:06.454Z,0.70
2019-01-19T04:03:51.868Z,1.03
2019-01-19T04:06:20.418Z,0.57
2019-01-19T04:08:54.727Z,0.80
2019-01-19T04:11:26.276Z,0.70
2019-01-19T04:17:03.609Z,1.08
2019-01-19T04:19:32.937Z,0.90
2019-01-19T04:22:03.686Z,0.97
2019-01-19T04:24:31.229Z,1.10
2019-01-19T04:26:57.922Z,0.73
2019-01-19T04:29:24.791Z,0.90
2019-01-19T04:34:34.655Z,0.60
2019-01-19T04:37:01.449Z,0.70
2019-01-19T04:39:28.247Z,0.90
2019-01-19T04:41:55.139Z,0.77
2019-01-19T04:44:21.947Z,0.80
2019-01-19T04:46:48.727Z,0.60
2019-01-19T04:49:16.292Z,0.57
2019-01-19T04:51:43.121Z,0.70
2019-01-19T04:54:11.570Z,0.60
2019-01-19T04:56:38.853Z,0.90
2019-01-19T04:59:05.612Z,0.63
2019-01-19T05:01:32.400Z,0.80
2019-01-19T05:03:59.324Z,1.20
2019-01-19T05:06:30.518Z,0.63
2019-01-19T05:08:53.607Z,0.60
2019-01-19T05:11:20.350Z,1.17
2019-01-19T05:13:47.809Z,0.60
2019-01-19T05:16:15.428Z,0.80
2019-01-19T05:18:42.267Z,0.67
2019-01-19T05:21:09.075Z,0.70
2019-01-19T05:23:35.883Z,0.70
2019-01-19T05:26:02.715Z,0.80
2019-01-19T05:28:30.236Z,0.80
2019-01-19T05:30:56.995Z,0.60
2019-01-19T05:33:23.756Z,0.70
2019-01-19T05:35:50.558Z,0.50
2019-01-19T05:38:17.263Z,0.60
2019-01-19T05:40:44.038Z,0.67
2019-01-19T05:43:10.913Z,0.70
2019-01-19T05:45:37.672Z,0.60
2019-01-19T05:48:04.483Z,0.63
2019-01-19T05:50:31.217Z,0.80
2019-01-19T05:52:58.001Z,0.50
2019-01-19T05:55:24.776Z,0.63
2019-01-19T05:57:51.499Z,0.90
2019-01-19T06:00:19.176Z,0.50
2019-01-19T06:02:45.975Z,0.57
2019-01-19T06:05:12.733Z,0.70
2019-01-19T06:07:41.596Z,0.60
2019-01-19T06:10:09.927Z,0.47
2019-01-19T06:12:36.728Z,0.53
2019-01-19T06:15:03.595Z,0.70
2019-01-19T06:17:30.505Z,0.57
2019-01-19T06:19:57.257Z,0.40
2019-01-19T06:22:24.047Z,1.00
2019-01-19T06:24:50.801Z,0.70
2019-01-19T06:27:18.352Z,0.63
2019-01-19T06:29:45.079Z,0.60
2019-01-19T06:32:11.788Z,0.67
2019-01-19T06:34:39.394Z,0.53
2019-01-19T06:37:06.259Z,0.90
2019-01-19T06:39:33.020Z,0.70
2019-01-19T06:41:59.935Z,0.70
2019-01-19T06:44:26.779Z,0.70
2019-01-19T06:46:53.603Z,0.60
2019-01-19T06:49:20.332Z,0.60
2019-01-19T06:51:47.183Z,0.60
2019-01-19T06:54:15.991Z,0.70
2019-01-19T06:56:43.055Z,0.77
2019-01-19T06:59:17.152Z,0.73
2019-01-19T07:01:37.645Z,2.53
2019-01-19T07:04:04.426Z,2.20
2019-01-19T07:06:31.982Z,1.40
2019-01-19T07:08:59.064Z,1.47
2019-01-19T07:11:26.039Z,1.10
2019-01-19T07:13:52.879Z,0.97
2019-01-19T07:16:19.620Z,1.40
2019-01-19T07:18:46.323Z,1.17
2019-01-19T07:21:13.885Z,1.20
2019-01-19T07:23:40.607Z,1.13
2019-01-19T07:26:07.346Z,1.30
2019-01-19T07:28:34.327Z,1.20
2019-01-19T07:31:01.080Z,1.23
2019-01-19T07:33:27.951Z,1.83
2019-01-19T07:35:54.655Z,1.53
2019-01-19T07:38:21.550Z,1.33
2019-01-19T07:40:48.523Z,1.00
2019-01-19T07:43:16.277Z,0.90
2019-01-19T07:45:43.825Z,0.90
2019-01-19T07:48:10.557Z,0.90
2019-01-19T07:50:37.764Z,0.70
2019-01-19T07:53:04.535Z,0.70
2019-01-19T07:55:31.501Z,0.87
2019-01-19T07:57:58.236Z,0.87
2019-01-19T08:00:27.149Z,1.27
2019-01-19T08:02:53.919Z,1.20
2019-01-19T08:05:21.586Z,0.77
2019-01-19T08:07:48.316Z,0.93
2019-01-19T08:10:15.178Z,0.93
2019-01-19T08:12:42.030Z,0.60
2019-01-19T08:15:17.970Z,1.20
2019-01-19T08:17:45.032Z,1.37
2019-01-19T08:20:11.809Z,1.07
2019-01-19T08:22:39.263Z,1.00
2019-01-19T08:25:06.146Z,1.30
2019-01-19T08:27:32.968Z,1.20
2019-01-19T08:29:59.734Z,1.30
2019-01-19T08:32:26.528Z,1.30
2019-01-19T08:34:53.224Z,1.23
2019-01-19T08:37:24.419Z,1.10
2019-01-19T08:39:46.762Z,1.20
2019-01-19T08:42:14.258Z,1.00
2019-01-19T08:44:41.023Z,1.00
2019-01-19T08:47:07.850Z,1.40
2019-01-19T08:49:34.723Z,1.30
2019-01-19T08:52:02.377Z,0.87
2019-01-19T08:54:29.436Z,1.40
2019-01-19T08:56:56.286Z,1.50
2019-01-19T08:59:23.046Z,0.83
2019-01-19T09:01:49.765Z,0.80
2019-01-19T09:04:16.599Z,0.80
2019-01-19T09:06:44.766Z,1.20
2019-01-19T09:09:11.499Z,1.00
2019-01-19T09:11:38.678Z,1.13
2019-01-19T09:14:05.477Z,1.07
2019-01-19T09:16:39.470Z,1.00
2019-01-19T09:18:59.075Z,2.40
2019-01-19T09:21:25.893Z,3.33
2019-01-19T09:23:52.705Z,3.80
2019-01-19T09:26:19.440Z,3.43
2019-01-19T09:28:46.178Z,5.30
2019-01-19T09:31:27.811Z,4.03
2019-01-19T09:33:54.573Z,3.07
2019-01-19T09:36:21.509Z,2.90
2019-01-19T09:38:48.339Z,1.57
2019-01-19T09:41:15.067Z,2.00
2019-01-19T09:43:41.931Z,1.77
2019-01-19T09:46:08.965Z,1.30
2019-01-19T09:48:35.731Z,1.10
2019-01-19T09:51:03.296Z,1.00
2019-01-19T09:53:30.112Z,0.73
2019-01-19T09:55:59.705Z,1.13
2019-01-19T09:58:26.496Z,0.77
2019-01-19T10:00:53.200Z,1.53
2019-01-19T10:03:19.952Z,2.83
2019-01-19T10:05:46.692Z,1.60
2019-01-19T10:08:13.443Z,2.57
2019-01-19T10:10:40.444Z,1.17
2019-01-19T10:13:07.180Z,1.20
2019-01-19T10:15:34.714Z,1.47
2019-01-19T10:18:01.744Z,0.80
2019-01-19T10:20:29.340Z,1.00
2019-01-19T10:22:56.145Z,1.20
2019-01-19T10:25:23.226Z,1.00
2019-01-19T10:27:50.139Z,2.20
2019-01-19T10:30:18.835Z,1.60
2019-01-19T10:32:46.450Z,1.17
2019-01-19T10:35:13.246Z,1.20
2019-01-19T10:37:40.005Z,1.07
2019-01-19T10:40:07.606Z,1.10
2019-01-19T10:42:34.447Z,1.27
2019-01-19T10:45:01.218Z,1.63
2019-01-19T10:47:28.673Z,1.30
2019-01-19T10:49:55.487Z,1.70
2019-01-19T10:52:22.208Z,1.30
2019-01-19T10:54:49.724Z,8.87
2019-01-19T10:57:16.566Z,3.07
2019-01-19T10:59:43.291Z,2.47
2019-01-19T11:02:10.385Z,3.40
2019-01-19T11:04:39.228Z,2.53
2019-01-19T11:07:06.093Z,1.40
2019-01-19T11:09:33.028Z,0.87
2019-01-19T11:12:00.320Z,1.60
2019-01-19T11:14:27.161Z,1.40
2019-01-19T11:16:54.508Z,1.03
2019-01-19T11:19:22.018Z,0.90
2019-01-19T11:21:48.845Z,1.17
2019-01-19T11:24:15.550Z,2.53
2019-01-19T11:26:43.078Z,1.50
2019-01-19T11:29:09.904Z,1.17
2019-01-19T11:31:36.637Z,1.53
2019-01-19T11:34:03.405Z,1.43
2019-01-19T11:36:30.278Z,1.20
2019-01-19T11:38:57.763Z,1.10
2019-01-19T11:41:24.475Z,1.80
2019-01-19T11:43:52.007Z,1.20
2019-01-19T11:46:19.514Z,1.07
2019-01-19T11:48:46.236Z,1.20
2019-01-19T11:51:13.767Z,1.20
2019-01-19T11:53:40.521Z,0.97
2019-01-19T11:56:12.121Z,1.17
2019-01-19T11:58:34.116Z,1.00
2019-01-19T12:01:00.896Z,1.10
2019-01-19T12:03:28.528Z,1.10
2019-01-19T12:05:55.347Z,1.57
2019-01-19T12:08:22.841Z,1.30
2019-01-19T12:10:50.351Z,1.10
2019-01-19T12:13:17.076Z,1.13
2019-01-19T12:15:43.854Z,0.97
2019-01-19T12:18:11.406Z,1.60
2019-01-19T12:20:38.288Z,3.70
2019-01-19T12:23:05.046Z,0.93
2019-01-19T12:25:31.834Z,1.53
2019-01-19T12:27:58.531Z,1.27
2019-01-19T12:30:28.993Z,1.40
2019-01-19T12:32:55.941Z,1.10
2019-01-19T12:35:22.816Z,1.20
2019-01-19T12:37:50.282Z,1.07
2019-01-19T12:40:17.079Z,1.27
2019-01-19T12:42:43.809Z,1.30
2019-01-19T12:45:10.601Z,1.10
2019-01-19T12:47:37.367Z,1.17
2019-01-19T12:50:04.105Z,1.20
2019-01-19T12:52:31.066Z,1.40
2019-01-19T12:54:57.839Z,1.23
2019-01-19T12:57:24.595Z,2.27
2019-01-19T12:59:52.081Z,2.60
2019-01-19T13:02:18.780Z,1.30
2019-01-19T13:04:45.505Z,1.43
2019-01-19T13:07:12.281Z,1.17
2019-01-19T13:09:38.970Z,1.33
2019-01-19T13:12:08.562Z,1.60
2019-01-19T13:14:35.332Z,1.10
2019-01-19T13:17:06.961Z,1.20
2019-01-19T13:19:39.477Z,1.30
2019-01-19T13:22:40.889Z,1.10
2019-01-19T13:25:10.461Z,1.37
2019-01-19T13:27:56.899Z,1.27
2019-01-19T13:33:28.345Z,1.33
2019-01-19T13:36:07.361Z,1.27
2019-01-19T13:38:42.090Z,1.30
2019-01-19T13:44:36.409Z,1.70
2019-01-19T13:47:41.575Z,1.20
2019-01-19T13:50:29.103Z,1.30
2019-01-19T13:53:05.032Z,1.20
2019-01-19T13:55:54.501Z,1.50
2019-01-19T13:58:23.862Z,0.90
2019-01-19T14:01:13.615Z,0.90
2019-01-19T14:03:51.970Z,1.10
2019-01-19T14:06:28.578Z,1.20
2019-01-19T14:09:20.129Z,1.40
2019-01-19T14:12:00.787Z,1.03
2019-01-19T14:14:34.592Z,1.03
2019-01-19T14:17:19.208Z,1.00
2019-01-19T14:19:51.874Z,1.17
2019-01-19T14:22:36.400Z,1.20
2019-01-19T14:25:10.921Z,0.80
2019-01-19T14:27:40.623Z,1.20
2019-01-19T14:30:24.058Z,1.00
2019-01-19T14:32:52.456Z,1.00
2019-01-19T14:35:24.124Z,1.50
2019-01-19T14:38:07.609Z,1.03
2019-01-19T14:41:03.162Z,1.00
2019-01-19T14:43:36.125Z,1.10
2019-01-19T14:49:11.080Z,1.23
2019-01-19T14:51:59.537Z,1.00
2019-01-19T14:54:45.830Z,0.90
2019-01-19T14:57:37.381Z,1.00
2019-01-19T15:00:11.147Z,0.83
2019-01-19T15:02:56.703Z,0.80
2019-01-19T15:05:33.418Z,1.10
2019-01-19T15:08:01.879Z,1.20
2019-01-19T15:10:44.611Z,0.97
2019-01-19T15:13:12.356Z,1.00
2019-01-19T15:15:45.990Z,1.00
2019-01-19T15:21:21.952Z,1.17
2019-01-19T15:23:56.371Z,0.70
2019-01-19T15:26:36.729Z,1.10
2019-01-19T15:29:24.360Z,1.00
2019-01-19T15:32:12.913Z,0.83
2019-01-19T15:37:57.388Z,1.20
2019-01-19T15:40:25.793Z,1.03
2019-01-19T15:43:03.322Z,1.10
2019-01-19T15:45:42.596Z,1.10
2019-01-19T15:48:18.451Z,0.60
2019-01-19T15:50:54.409Z,1.40
2019-01-19T15:53:26.900Z,0.90
2019-01-19T15:56:10.495Z,0.97
2019-01-19T15:58:37.992Z,1.00
2019-01-19T16:04:11.752Z,1.40
2019-01-19T16:06:50.104Z,1.00
2019-01-19T16:09:46.582Z,1.10
2019-01-19T16:12:17.000Z,0.97
2019-01-19T16:17:44.710Z,1.00
2019-01-19T16:20:20.422Z,0.80
2019-01-19T16:22:52.047Z,0.90
2019-01-19T16:28:29.492Z,1.00
2019-01-19T16:31:17.016Z,0.93
2019-01-19T16:34:06.621Z,0.77
2019-01-19T16:36:40.045Z,0.87
2019-01-19T16:42:17.314Z,1.20
2019-01-19T16:45:17.906Z,1.20
2019-01-19T16:47:52.415Z,1.60
2019-01-19T16:50:42.203Z,1.20
2019-01-19T16:53:13.984Z,0.90
2019-01-19T16:55:41.798Z,0.87
2019-01-19T16:58:19.313Z,0.90
2019-01-19T17:01:02.820Z,0.97
2019-01-19T17:03:43.305Z,0.80
2019-01-19T17:06:24.798Z,0.90
2019-01-19T17:09:16.230Z,0.93
2019-01-19T17:11:50.731Z,1.10
2019-01-19T17:17:38.186Z,1.10
2019-01-19T17:20:15.109Z,1.00
2019-01-19T17:22:44.849Z,0.90
2019-01-19T17:25:15.298Z,1.10
2019-01-19T17:27:43.717Z,0.90
2019-01-19T17:30:15.371Z,0.80
2019-01-19T17:32:45.152Z,0.97
2019-01-19T17:35:15.689Z,1.00
2019-01-19T17:37:43.292Z,1.10
2019-01-19T17:43:25.978Z,0.98
2019-01-19T17:46:08.796Z,0.83
2019-01-19T17:48:44.158Z,0.93
2019-01-19T17:51:14.844Z,0.70
2019-01-19T17:54:03.606Z,1.00
2019-01-19T17:56:33.969Z,0.73
2019-01-19T17:59:21.626Z,0.87
2019-01-19T18:02:04.120Z,0.70
2019-01-19T18:04:32.898Z,0.73
2019-01-19T18:10:15.157Z,0.88
2019-01-19T18:13:03.891Z,0.80
2019-01-19T18:18:57.085Z,1.10
2019-01-19T18:24:26.010Z,0.88
2019-01-19T18:30:22.364Z,0.80
2019-01-19T18:36:00.071Z,0.70
2019-01-19T18:41:44.724Z,0.70
2019-01-19T18:44:34.470Z,0.70
2019-01-19T18:49:58.896Z,0.80
2019-01-19T18:52:47.635Z,0.50
2019-01-19T18:55:18.877Z,0.60
2019-01-19T18:58:07.682Z,0.50
2019-01-19T19:01:02.283Z,0.90
2019-01-19T19:06:44.352Z,1.10
2019-01-19T19:12:32.957Z,0.90
2019-01-19T19:15:27.449Z,0.90
2019-01-19T19:18:04.124Z,0.80
2019-01-19T19:24:09.590Z,1.10
2019-01-19T19:29:53.865Z,0.90
2019-01-19T19:32:29.408Z,0.97
2019-01-19T19:35:06.081Z,0.90
2019-01-19T19:41:00.292Z,1.10
2019-01-19T19:46:34.218Z,1.05
2019-01-19T19:49:09.971Z,0.80
2019-01-19T19:51:52.074Z,1.00
2019-01-19T19:54:18.920Z,0.93
2019-01-19T19:56:45.447Z,1.27
2019-01-19T19:59:12.394Z,0.60
2019-01-19T20:01:39.137Z,0.70
2019-01-19T20:04:05.978Z,0.80
2019-01-19T20:06:32.820Z,1.00
2019-01-19T20:08:59.562Z,0.70
2019-01-19T20:11:27.121Z,0.70
2019-01-19T20:13:53.866Z,0.60
2019-01-19T20:16:20.601Z,0.70
2019-01-19T20:18:47.444Z,0.83
2019-01-19T20:21:14.183Z,0.83
2019-01-19T20:23:41.026Z,0.50
2019-01-19T20:26:07.972Z,0.90
2019-01-19T20:28:34.816Z,0.80
2019-01-19T20:31:02.477Z,0.60
2019-01-19T20:33:29.424Z,0.50
2019-01-19T20:35:56.369Z,0.63
2019-01-19T20:38:23.207Z,0.60
2019-01-19T20:40:49.941Z,0.60
2019-01-19T20:43:16.633Z,0.70
2019-01-19T20:45:44.170Z,0.60
2019-01-19T20:48:10.966Z,0.67
2019-01-19T20:50:38.378Z,0.80
2019-01-19T20:53:05.148Z,0.60
2019-01-19T20:55:32.588Z,0.70
2019-01-19T20:57:59.314Z,0.93
2019-01-19T21:00:26.810Z,0.63
2019-01-19T21:02:54.251Z,0.63
2019-01-19T21:05:20.994Z,0.80
2019-01-19T21:07:47.696Z,1.20
2019-01-19T21:10:14.594Z,0.70
2019-01-19T21:12:41.402Z,0.70
2019-01-19T21:15:11.017Z,0.70
2019-01-19T21:17:37.716Z,0.60
2019-01-19T21:20:04.458Z,0.53
2019-01-19T21:22:32.023Z,0.97
2019-01-19T21:24:58.722Z,0.90
2019-01-19T21:27:26.161Z,0.80
2019-01-19T21:29:53.675Z,0.70
2019-01-19T21:32:20.455Z,0.90
2019-01-19T21:34:47.190Z,0.80
2019-01-19T21:37:14.716Z,0.80
2019-01-19T21:39:41.796Z,0.50
2019-01-19T21:42:09.021Z,0.70
2019-01-19T21:44:36.865Z,0.50
2019-01-19T21:47:04.126Z,0.57
2019-01-19T21:49:31.179Z,0.57
2019-01-19T21:51:58.334Z,0.80
2019-01-19T21:54:25.459Z,0.70
2019-01-19T21:56:52.185Z,1.10
2019-01-19T21:59:34.614Z,0.70
2019-01-19T22:02:02.203Z,0.57
2019-01-19T22:04:29.001Z,0.70
2019-01-19T22:06:55.889Z,0.63
2019-01-19T22:09:22.654Z,0.50
2019-01-19T22:11:49.318Z,0.60
2019-01-19T22:14:16.160Z,0.80
2019-01-19T22:16:42.850Z,0.70
2019-01-19T22:19:09.605Z,0.50
2019-01-19T22:21:36.401Z,0.50
2019-01-19T22:24:03.201Z,0.43
2019-01-19T22:26:30.047Z,0.77
2019-01-19T22:28:56.908Z,0.47
2019-01-19T22:31:24.484Z,0.50
2019-01-19T22:33:51.288Z,0.53
2019-01-19T22:36:18.223Z,0.60
2019-01-19T22:38:45.792Z,0.40
2019-01-19T22:41:12.869Z,0.30
2019-01-19T22:43:40.612Z,0.40
2019-01-19T22:46:07.715Z,0.60
2019-01-19T22:48:34.664Z,0.33
2019-01-19T22:51:01.435Z,0.50
2019-01-19T22:53:28.188Z,0.47
2019-01-19T22:55:55.117Z,0.37
2019-01-19T22:58:21.857Z,0.50
2019-01-19T23:00:56.282Z,0.30
2019-01-19T23:03:23.111Z,0.60
2019-01-19T23:05:49.898Z,0.80
2019-01-19T23:08:16.772Z,0.30
2019-01-19T23:10:44.344Z,0.30
2019-01-19T23:13:11.117Z,0.60
2019-01-19T23:15:37.924Z,0.50
2019-01-19T23:18:04.701Z,0.60
2019-01-19T23:20:31.381Z,0.37
2019-01-19T23:22:58.217Z,0.50
2019-01-19T23:25:24.936Z,0.30
2019-01-19T23:27:51.728Z,0.30
2019-01-19T23:30:18.529Z,0.63
2019-01-19T23:32:46.776Z,0.53
2019-01-19T23:35:13.518Z,0.50
2019-01-19T23:37:40.261Z,0.40
2019-01-19T23:40:07.777Z,0.43
2019-01-19T23:42:34.840Z,0.40
2019-01-19T23:45:01.576Z,0.40
2019-01-19T23:47:28.303Z,0.57
2019-01-19T23:49:55.063Z,0.50
2019-01-19T23:52:21.728Z,0.50
2019-01-19T23:54:48.444Z,0.90
2019-01-19T23:57:15.263Z,0.50
2019-01-19T23:59:41.977Z,0.50
